createdAt,value
2023-07-24T00:00:46.626Z,0.00
2023-07-24T00:01:46.546Z,0.00
2023-07-24T00:02:46.535Z,0.00
2023-07-24T00:03:46.557Z,0.00
2023-07-24T00:04:46.478Z,0.00
2023-07-24T00:05:46.484Z,0.00
2023-07-24T00:06:46.481Z,0.00
2023-07-24T00:07:46.468Z,0.00
2023-07-24T00:08:46.452Z,0.00
2023-07-24T00:09:46.431Z,0.00
2023-07-24T00:10:46.465Z,0.00
2023-07-24T00:11:46.445Z,0.00
2023-07-24T00:12:46.403Z,0.00
2023-07-24T00:13:46.400Z,0.00
2023-07-24T00:14:46.382Z,0.00
2023-07-24T00:15:46.407Z,0.00
2023-07-24T00:16:46.383Z,0.00
2023-07-24T00:17:46.476Z,0.00
2023-07-24T00:18:46.351Z,0.00
2023-07-24T00:19:46.335Z,0.00
2023-07-24T00:20:46.326Z,0.00
2023-07-24T00:21:46.320Z,0.00
2023-07-24T00:22:46.312Z,0.00
2023-07-24T00:23:46.299Z,0.00
2023-07-24T00:24:46.355Z,0.00
2023-07-24T00:25:46.268Z,0.00
2023-07-24T00:26:46.266Z,0.00
2023-07-24T00:27:46.235Z,0.00
2023-07-24T00:28:46.264Z,0.00
2023-07-24T00:29:46.231Z,0.00
2023-07-24T00:30:46.247Z,0.00
2023-07-24T00:31:46.199Z,0.00
2023-07-24T00:32:46.241Z,0.00
2023-07-24T00:33:46.188Z,0.00
2023-07-24T00:34:46.220Z,0.00
2023-07-24T00:35:46.154Z,0.00
2023-07-24T00:36:46.165Z,0.00
2023-07-24T00:37:46.134Z,0.00
2023-07-24T00:38:46.130Z,0.00
2023-07-24T00:39:46.181Z,0.00
2023-07-24T00:40:46.127Z,0.00
2023-07-24T00:41:46.925Z,0.00
2023-07-24T00:42:46.091Z,0.00
2023-07-24T00:43:46.211Z,0.00
2023-07-24T00:44:46.068Z,0.00
2023-07-24T00:45:46.062Z,0.00
2023-07-24T00:46:46.119Z,0.00
2023-07-24T00:47:46.084Z,0.00
2023-07-24T00:48:46.028Z,0.00
2023-07-24T00:49:46.078Z,0.00
2023-07-24T00:50:46.000Z,0.00
2023-07-24T00:51:46.021Z,0.00
2023-07-24T00:52:46.013Z,0.00
2023-07-24T00:53:45.977Z,0.00
2023-07-24T00:54:46.011Z,0.00
2023-07-24T00:55:45.939Z,0.00
2023-07-24T00:56:46.437Z,0.00
2023-07-24T00:57:45.957Z,0.00
2023-07-24T00:58:45.964Z,0.00
2023-07-24T00:59:45.947Z,0.00
2023-07-24T01:00:46.042Z,0.00
2023-07-24T01:01:45.876Z,0.00
2023-07-24T01:02:46.050Z,0.00
2023-07-24T01:03:45.859Z,0.00
2023-07-24T01:04:45.872Z,0.00
2023-07-24T01:05:45.857Z,0.00
2023-07-24T01:06:45.856Z,0.00
2023-07-24T01:07:45.886Z,0.00
2023-07-24T01:08:45.854Z,0.00
2023-07-24T01:09:45.797Z,0.00
2023-07-24T01:10:45.834Z,0.00
2023-07-24T01:11:45.792Z,0.00
2023-07-24T01:12:45.799Z,0.00
2023-07-24T01:13:45.794Z,0.00
2023-07-24T01:14:45.776Z,0.00
2023-07-24T01:15:45.690Z,1.00
2023-07-24T01:16:45.817Z,0.00
2023-07-24T01:17:45.742Z,0.00
2023-07-24T01:18:45.756Z,0.00
2023-07-24T01:19:45.690Z,0.00
2023-07-24T01:20:45.714Z,0.00
2023-07-24T01:21:45.704Z,0.00
2023-07-24T01:22:45.887Z,0.00
2023-07-24T01:23:45.652Z,0.00
2023-07-24T01:24:45.743Z,0.00
2023-07-24T01:25:45.625Z,0.00
2023-07-24T01:26:45.627Z,0.00
2023-07-24T01:27:45.613Z,0.00
2023-07-24T01:28:45.618Z,0.00
2023-07-24T01:29:45.633Z,0.00
2023-07-24T01:30:45.663Z,0.00
2023-07-24T01:31:45.593Z,0.00
2023-07-24T01:32:45.619Z,0.00
2023-07-24T01:33:45.544Z,0.00
2023-07-24T01:34:45.534Z,0.00
2023-07-24T01:35:45.524Z,0.00
2023-07-24T01:36:45.515Z,0.00
2023-07-24T01:37:45.510Z,0.00
2023-07-24T01:38:45.505Z,0.00
2023-07-24T01:39:45.498Z,0.00
2023-07-24T01:40:45.464Z,0.00
2023-07-24T01:41:45.484Z,0.00
2023-07-24T01:42:45.468Z,0.00
2023-07-24T01:43:45.430Z,0.00
2023-07-24T01:44:45.431Z,0.00
2023-07-24T01:45:45.429Z,0.00
2023-07-24T01:46:45.571Z,0.00
2023-07-24T01:47:45.422Z,0.00
2023-07-24T01:48:45.404Z,0.00
2023-07-24T01:49:45.415Z,0.00
2023-07-24T01:50:45.435Z,0.00
2023-07-24T01:51:45.346Z,0.00
2023-07-24T01:52:45.363Z,0.00
2023-07-24T01:53:45.333Z,0.00
2023-07-24T01:54:45.354Z,0.00
2023-07-24T01:55:45.310Z,0.00
2023-07-24T01:56:45.305Z,0.00
2023-07-24T01:57:45.301Z,0.00
2023-07-24T01:58:45.293Z,0.00
2023-07-24T01:59:45.255Z,0.00
2023-07-24T02:00:45.281Z,0.00
2023-07-24T02:01:45.392Z,0.00
2023-07-24T02:02:45.305Z,0.00
2023-07-24T02:03:45.379Z,0.00
2023-07-24T02:04:45.228Z,0.00
2023-07-24T02:05:45.224Z,0.00
2023-07-24T02:06:45.214Z,0.00
2023-07-24T02:07:45.173Z,0.00
2023-07-24T02:08:45.183Z,0.00
2023-07-24T02:09:45.824Z,0.00
2023-07-24T02:10:45.185Z,0.00
2023-07-24T02:11:45.151Z,0.00
2023-07-24T02:12:45.130Z,0.00
2023-07-24T02:13:45.112Z,0.00
2023-07-24T02:14:45.143Z,0.00
2023-07-24T02:15:45.127Z,0.00
2023-07-24T02:16:45.156Z,0.00
2023-07-24T02:17:45.172Z,0.00
2023-07-24T02:18:45.064Z,0.00
2023-07-24T02:19:45.050Z,0.00
2023-07-24T02:20:45.081Z,0.00
2023-07-24T02:21:45.059Z,0.00
2023-07-24T02:22:45.045Z,0.00
2023-07-24T02:23:45.015Z,0.00
2023-07-24T02:24:45.016Z,0.00
2023-07-24T02:25:45.043Z,1.00
2023-07-24T02:26:44.973Z,0.00
2023-07-24T02:27:44.970Z,0.00
2023-07-24T02:28:44.973Z,0.00
2023-07-24T02:29:44.992Z,0.00
2023-07-24T02:30:44.940Z,0.00
2023-07-24T02:31:44.986Z,0.00
2023-07-24T02:32:44.968Z,0.00
2023-07-24T02:33:44.913Z,0.00
2023-07-24T02:34:44.906Z,0.00
2023-07-24T02:35:44.884Z,0.00
2023-07-24T02:36:44.897Z,0.00
2023-07-24T02:37:44.884Z,0.00
2023-07-24T02:38:44.856Z,0.00
2023-07-24T02:39:44.836Z,0.00
2023-07-24T02:40:44.834Z,0.00
2023-07-24T02:41:44.828Z,0.00
2023-07-24T02:42:44.855Z,0.00
2023-07-24T02:43:44.782Z,0.00
2023-07-24T02:44:44.782Z,0.00
2023-07-24T02:45:44.867Z,0.00
2023-07-24T02:46:44.773Z,0.00
2023-07-24T02:47:44.798Z,0.00
2023-07-24T02:48:44.774Z,0.00
2023-07-24T02:49:44.743Z,0.00
2023-07-24T02:50:44.720Z,0.00
2023-07-24T02:51:44.664Z,1.00
2023-07-24T02:52:44.721Z,0.00
2023-07-24T02:53:44.712Z,0.00
2023-07-24T02:54:44.680Z,0.00
2023-07-24T02:55:44.736Z,1.00
2023-07-24T02:56:44.677Z,0.00
2023-07-24T02:57:44.741Z,0.00
2023-07-24T02:58:44.645Z,0.00
2023-07-24T02:59:44.653Z,0.00
2023-07-24T03:00:44.635Z,0.00
2023-07-24T03:01:44.642Z,0.00
2023-07-24T03:02:44.692Z,0.00
2023-07-24T03:03:44.680Z,1.00
2023-07-24T03:04:44.588Z,0.00
2023-07-24T03:05:44.581Z,0.00
2023-07-24T03:06:44.597Z,0.00
2023-07-24T03:07:44.551Z,0.00
2023-07-24T03:08:44.595Z,0.00
2023-07-24T03:09:44.492Z,1.00
2023-07-24T03:10:44.616Z,1.00
2023-07-24T03:11:44.452Z,1.00
2023-07-24T03:12:44.458Z,1.00
2023-07-24T03:13:44.447Z,1.00
2023-07-24T03:14:44.419Z,1.00
2023-07-24T03:15:44.485Z,1.00
2023-07-24T03:16:44.472Z,2.00
2023-07-24T03:17:44.452Z,2.00
2023-07-24T03:18:44.401Z,1.00
2023-07-24T03:19:44.378Z,2.00
2023-07-24T03:20:44.356Z,2.00
2023-07-24T03:21:44.406Z,1.00
2023-07-24T03:22:44.343Z,1.00
2023-07-24T03:23:44.337Z,2.00
2023-07-24T03:24:44.354Z,2.00
2023-07-24T03:25:44.313Z,1.00
2023-07-24T03:26:44.284Z,2.00
2023-07-24T03:27:44.267Z,2.00
2023-07-24T03:28:44.320Z,2.00
2023-07-24T03:29:44.261Z,1.00
2023-07-24T03:30:44.329Z,1.00
2023-07-24T03:31:44.329Z,1.00
2023-07-24T03:32:44.265Z,2.00
2023-07-24T03:33:44.242Z,1.00
2023-07-24T03:34:44.247Z,0.00
2023-07-24T03:35:44.197Z,1.00
2023-07-24T03:36:44.433Z,3.00
2023-07-24T03:37:44.188Z,2.00
2023-07-24T03:38:44.203Z,2.00
2023-07-24T03:39:44.146Z,4.00
2023-07-24T03:40:44.148Z,4.00
2023-07-24T03:41:44.148Z,4.00
2023-07-24T03:42:44.160Z,4.00
2023-07-24T03:43:44.108Z,6.00
2023-07-24T03:44:44.210Z,5.00
2023-07-24T03:45:44.084Z,7.00
2023-07-24T03:46:44.136Z,8.00
2023-07-24T03:47:44.102Z,6.00
2023-07-24T03:48:44.049Z,9.00
2023-07-24T03:49:44.077Z,9.00
2023-07-24T03:50:44.048Z,8.00
2023-07-24T03:51:44.002Z,4.00
2023-07-24T03:52:44.043Z,3.00
2023-07-24T03:53:44.005Z,3.00
2023-07-24T03:54:44.020Z,6.00
2023-07-24T03:55:44.114Z,3.00
2023-07-24T03:56:43.989Z,1.00
2023-07-24T03:57:43.956Z,5.00
2023-07-24T03:58:43.958Z,7.00
2023-07-24T03:59:43.932Z,4.00
2023-07-24T04:00:43.956Z,13.00
2023-07-24T04:01:43.945Z,22.00
2023-07-24T04:02:43.980Z,27.00
2023-07-24T04:03:43.971Z,29.00
2023-07-24T04:04:44.617Z,27.00
2023-07-24T04:05:43.889Z,27.00
2023-07-24T04:06:43.900Z,21.00
2023-07-24T04:07:43.862Z,12.00
2023-07-24T04:08:43.841Z,6.00
2023-07-24T04:09:43.875Z,6.00
2023-07-24T04:10:43.818Z,10.00
2023-07-24T04:11:43.832Z,14.00
2023-07-24T04:12:43.811Z,17.00
2023-07-24T04:13:43.842Z,20.00
2023-07-24T04:14:43.796Z,14.00
2023-07-24T04:15:43.864Z,14.00
2023-07-24T04:16:43.797Z,9.00
2023-07-24T04:17:43.877Z,7.00
2023-07-24T04:18:43.745Z,7.00
2023-07-24T04:19:43.765Z,7.00
2023-07-24T04:20:43.734Z,5.00
2023-07-24T04:21:43.712Z,8.00
2023-07-24T04:22:43.681Z,8.00
2023-07-24T04:23:43.703Z,7.00
2023-07-24T04:24:43.709Z,5.00
2023-07-24T04:25:43.706Z,13.00
2023-07-24T04:26:43.668Z,11.00
2023-07-24T04:27:43.671Z,10.00
2023-07-24T04:28:44.644Z,14.00
2023-07-24T04:29:43.619Z,14.00
2023-07-24T04:30:43.626Z,12.00
2023-07-24T04:31:43.632Z,16.00
2023-07-24T04:32:43.658Z,12.00
2023-07-24T04:33:43.593Z,18.00
2023-07-24T04:34:43.586Z,15.00
2023-07-24T04:35:43.562Z,27.00
2023-07-24T04:36:43.572Z,35.00
2023-07-24T04:37:43.530Z,43.00
2023-07-24T04:38:43.569Z,52.00
2023-07-24T04:39:43.522Z,57.00
2023-07-24T04:40:43.534Z,51.00
2023-07-24T04:41:43.511Z,88.00
2023-07-24T04:42:43.488Z,89.00
2023-07-24T04:43:43.550Z,91.00
2023-07-24T04:44:43.463Z,134.00
2023-07-24T04:45:43.470Z,89.00
2023-07-24T04:46:43.476Z,135.00
2023-07-24T04:47:43.451Z,130.00
2023-07-24T04:48:43.415Z,108.00
2023-07-24T04:49:43.445Z,101.00
2023-07-24T04:50:43.396Z,96.00
2023-07-24T04:51:44.011Z,115.00
2023-07-24T04:52:43.374Z,127.00
2023-07-24T04:53:43.384Z,119.00
2023-07-24T04:54:43.379Z,112.00
2023-07-24T04:55:43.345Z,106.00
2023-07-24T04:56:43.352Z,57.00
2023-07-24T04:57:43.314Z,14.00
2023-07-24T04:58:43.340Z,42.00
2023-07-24T04:59:44.658Z,45.00
2023-07-24T05:00:43.286Z,42.00
2023-07-24T05:01:43.321Z,41.00
2023-07-24T05:02:44.011Z,43.00
2023-07-24T05:03:43.278Z,35.00
2023-07-24T05:04:43.242Z,40.00
2023-07-24T05:05:46.486Z,43.00
2023-07-24T05:06:43.219Z,50.00
2023-07-24T05:07:43.292Z,53.00
2023-07-24T05:08:43.200Z,61.00
2023-07-24T05:09:43.196Z,76.00
2023-07-24T05:10:43.226Z,96.00
2023-07-24T05:11:43.284Z,100.00
2023-07-24T05:12:43.173Z,95.00
2023-07-24T05:13:43.152Z,65.00
2023-07-24T05:14:43.174Z,84.00
2023-07-24T05:15:43.122Z,118.00
2023-07-24T05:16:43.160Z,140.00
2023-07-24T05:17:43.166Z,144.00
2023-07-24T05:18:43.152Z,81.00
2023-07-24T05:19:43.084Z,148.00
2023-07-24T05:20:43.088Z,209.00
2023-07-24T05:21:43.069Z,151.00
2023-07-24T05:22:43.175Z,221.00
2023-07-24T05:23:43.041Z,216.00
2023-07-24T05:24:43.546Z,241.00
2023-07-24T05:25:43.070Z,182.00
2023-07-24T05:26:43.017Z,223.00
2023-07-24T05:27:45.086Z,259.00
2023-07-24T05:28:43.009Z,324.00
2023-07-24T05:29:42.987Z,337.00
2023-07-24T05:30:42.969Z,259.00
2023-07-24T05:31:43.080Z,199.00
2023-07-24T05:32:42.957Z,331.00
2023-07-24T05:33:42.983Z,381.00
2023-07-24T05:34:46.009Z,411.00
2023-07-24T05:35:43.066Z,454.00
2023-07-24T05:36:42.904Z,457.00
2023-07-24T05:37:42.910Z,557.00
2023-07-24T05:38:42.894Z,660.00
2023-07-24T05:39:42.899Z,703.00
2023-07-24T05:40:42.862Z,783.00
2023-07-24T05:41:42.873Z,750.00
2023-07-24T05:42:42.857Z,708.00
2023-07-24T05:43:42.911Z,791.00
2023-07-24T05:44:42.834Z,752.00
2023-07-24T05:45:42.873Z,735.00
2023-07-24T05:46:42.897Z,540.00
2023-07-24T05:47:42.798Z,615.00
2023-07-24T05:48:42.782Z,637.00
2023-07-24T05:49:43.009Z,557.00
2023-07-24T05:50:43.673Z,277.00
2023-07-24T05:51:42.765Z,221.00
2023-07-24T05:52:42.760Z,286.00
2023-07-24T05:53:42.728Z,331.00
2023-07-24T05:54:42.717Z,350.00
2023-07-24T05:55:42.745Z,467.00
2023-07-24T05:56:42.714Z,490.00
2023-07-24T05:57:42.703Z,550.00
2023-07-24T05:58:42.687Z,388.00
2023-07-24T05:59:42.684Z,139.00
2023-07-24T06:00:42.661Z,237.00
2023-07-24T06:01:42.661Z,273.00
2023-07-24T06:02:42.690Z,145.00
2023-07-24T06:03:42.831Z,200.00
2023-07-24T06:04:42.623Z,226.00
2023-07-24T06:05:42.604Z,206.00
2023-07-24T06:06:42.577Z,334.00
2023-07-24T06:07:42.580Z,261.00
2023-07-24T06:08:42.564Z,165.00
2023-07-24T06:09:42.552Z,301.00
2023-07-24T06:10:42.560Z,285.00
2023-07-24T06:11:42.541Z,278.00
2023-07-24T06:12:42.526Z,297.00
2023-07-24T06:13:42.527Z,471.00
2023-07-24T06:14:42.511Z,568.00
2023-07-24T06:15:42.514Z,439.00
2023-07-24T06:16:42.621Z,471.00
2023-07-24T06:17:42.522Z,490.00
2023-07-24T06:18:42.587Z,470.00
2023-07-24T06:19:42.454Z,496.00
2023-07-24T06:20:42.433Z,451.00
2023-07-24T06:21:42.491Z,314.00
2023-07-24T06:22:42.412Z,342.00
2023-07-24T06:23:42.409Z,235.00
2023-07-24T06:24:42.463Z,341.00
2023-07-24T06:25:42.397Z,403.00
2023-07-24T06:26:42.393Z,447.00
2023-07-24T06:27:42.383Z,558.00
2023-07-24T06:28:42.348Z,681.00
2023-07-24T06:29:42.426Z,549.00
2023-07-24T06:30:42.330Z,691.00
2023-07-24T06:31:42.383Z,658.00
2023-07-24T06:32:42.338Z,820.00
2023-07-24T06:33:42.323Z,1081.00
2023-07-24T06:34:42.292Z,1119.00
2023-07-24T06:35:42.429Z,1126.00
2023-07-24T06:36:42.289Z,916.00
2023-07-24T06:37:42.386Z,1076.00
2023-07-24T06:38:42.250Z,1028.00
2023-07-24T06:39:42.236Z,996.00
2023-07-24T06:40:42.216Z,1054.00
2023-07-24T06:41:42.224Z,1195.00
2023-07-24T06:42:42.327Z,1179.00
2023-07-24T06:43:42.224Z,781.00
2023-07-24T06:44:42.201Z,799.00
2023-07-24T06:45:42.222Z,1329.00
2023-07-24T06:46:42.174Z,744.00
2023-07-24T06:47:42.200Z,1319.00
2023-07-24T06:48:42.182Z,934.00
2023-07-24T06:49:42.220Z,1162.00
2023-07-24T06:50:42.170Z,437.00
2023-07-24T06:51:42.118Z,626.00
2023-07-24T06:52:42.122Z,617.00
2023-07-24T06:53:42.460Z,818.00
2023-07-24T06:54:42.203Z,1088.00
2023-07-24T06:55:42.151Z,1282.00
2023-07-24T06:56:42.127Z,1257.00
2023-07-24T06:57:42.159Z,1486.00
2023-07-24T06:58:42.045Z,1814.00
2023-07-24T06:59:42.041Z,1473.00
2023-07-24T07:00:42.013Z,830.00
2023-07-24T07:01:42.024Z,753.00
2023-07-24T07:02:42.033Z,1131.00
2023-07-24T07:03:42.031Z,763.00
2023-07-24T07:04:41.977Z,744.00
2023-07-24T07:05:42.017Z,490.00
2023-07-24T07:06:43.002Z,1192.00
2023-07-24T07:07:41.960Z,1420.00
2023-07-24T07:08:42.160Z,980.00
2023-07-24T07:09:41.918Z,698.00
2023-07-24T07:10:41.965Z,1480.00
2023-07-24T07:11:41.904Z,1680.00
2023-07-24T07:12:41.880Z,1550.00
2023-07-24T07:13:41.902Z,600.00
2023-07-24T07:14:41.865Z,599.00
2023-07-24T07:15:41.916Z,1593.00
2023-07-24T07:16:41.872Z,1470.00
2023-07-24T07:17:41.853Z,1320.00
2023-07-24T07:18:41.842Z,1181.00
2023-07-24T07:19:41.835Z,795.00
2023-07-24T07:20:41.802Z,670.00
2023-07-24T07:21:41.834Z,519.00
2023-07-24T07:22:41.787Z,518.00
2023-07-24T07:23:41.795Z,233.00
2023-07-24T07:24:41.906Z,205.00
2023-07-24T07:25:41.783Z,242.00
2023-07-24T07:26:41.745Z,188.00
2023-07-24T07:27:41.728Z,99.00
2023-07-24T07:28:41.709Z,460.00
2023-07-24T07:29:41.729Z,650.00
2023-07-24T07:30:42.998Z,276.00
2023-07-24T07:31:41.775Z,419.00
2023-07-24T07:32:41.677Z,712.00
2023-07-24T07:33:41.661Z,526.00
2023-07-24T07:34:41.697Z,914.00
2023-07-24T07:35:41.640Z,1214.00
2023-07-24T07:36:41.651Z,858.00
2023-07-24T07:37:41.654Z,751.00
2023-07-24T07:38:41.644Z,762.00
2023-07-24T07:39:41.608Z,792.00
2023-07-24T07:40:41.589Z,850.00
2023-07-24T07:41:41.583Z,899.00
2023-07-24T07:42:43.907Z,948.00
2023-07-24T07:43:41.554Z,1047.00
2023-07-24T07:44:41.558Z,1055.00
2023-07-24T07:45:41.589Z,1273.00
2023-07-24T07:46:41.564Z,1078.00
2023-07-24T07:47:41.575Z,1165.00
2023-07-24T07:48:41.517Z,1240.00
2023-07-24T07:49:41.609Z,1143.00
2023-07-24T07:50:41.491Z,1053.00
2023-07-24T07:51:41.479Z,1265.00
2023-07-24T07:52:41.492Z,1152.00
2023-07-24T07:53:41.506Z,1059.00
2023-07-24T07:54:41.432Z,814.00
2023-07-24T07:55:41.450Z,809.00
2023-07-24T07:56:41.413Z,1416.00
2023-07-24T07:57:41.413Z,1375.00
2023-07-24T07:58:41.459Z,1352.00
2023-07-24T07:59:41.407Z,1454.00
2023-07-24T08:00:41.410Z,1350.00
2023-07-24T08:01:41.378Z,1178.00
2023-07-24T08:02:41.460Z,1633.00
2023-07-24T08:03:41.360Z,1311.00
2023-07-24T08:04:41.474Z,1104.00
2023-07-24T08:05:41.325Z,1148.00
2023-07-24T08:06:41.299Z,1227.00
2023-07-24T08:07:41.356Z,1278.00
2023-07-24T08:08:41.293Z,1392.00
2023-07-24T08:09:41.281Z,1287.00
2023-07-24T08:10:41.372Z,1317.00
2023-07-24T08:11:41.257Z,1398.00
2023-07-24T08:12:41.284Z,1416.00
2023-07-24T08:13:41.265Z,1558.00
2023-07-24T08:14:41.212Z,1641.00
2023-07-24T08:15:41.216Z,1412.00
2023-07-24T08:16:41.306Z,1376.00
2023-07-24T08:17:41.365Z,1114.00
2023-07-24T08:18:41.192Z,1057.00
2023-07-24T08:19:41.174Z,1965.00
2023-07-24T08:20:41.151Z,2593.00
2023-07-24T08:21:41.156Z,1629.00
2023-07-24T08:22:41.130Z,2429.00
2023-07-24T08:23:41.169Z,2169.00
2023-07-24T08:24:41.186Z,2177.00
2023-07-24T08:25:41.091Z,2041.00
2023-07-24T08:26:41.110Z,1815.00
2023-07-24T08:28:00.669Z,1385.00
2023-07-24T08:28:41.099Z,1742.00
2023-07-24T08:29:41.058Z,1520.00
2023-07-24T08:30:41.100Z,1444.00
2023-07-24T08:31:41.084Z,1670.00
2023-07-24T08:32:41.111Z,1293.00
2023-07-24T08:33:41.012Z,1823.00
2023-07-24T08:34:41.009Z,1443.00
2023-07-24T08:35:41.009Z,1503.00
2023-07-24T08:36:40.986Z,1059.00
2023-07-24T08:37:40.975Z,1777.00
2023-07-24T08:38:40.995Z,1155.00
2023-07-24T08:39:40.971Z,1207.00
2023-07-24T08:40:40.975Z,2280.00
2023-07-24T08:41:40.978Z,1987.00
2023-07-24T08:42:40.920Z,1829.00
2023-07-24T08:43:40.980Z,2347.00
2023-07-24T08:44:40.934Z,1897.00
2023-07-24T08:45:40.985Z,527.00
2023-07-24T08:46:40.944Z,1814.00
2023-07-24T08:47:40.914Z,1206.00
2023-07-24T08:48:40.855Z,828.00
2023-07-24T08:49:40.843Z,3641.00
2023-07-24T08:50:40.843Z,2179.00
2023-07-24T08:51:40.883Z,2051.00
2023-07-24T08:52:40.860Z,1876.00
2023-07-24T08:53:40.805Z,1288.00
2023-07-24T08:54:40.804Z,1145.00
2023-07-24T08:55:40.792Z,1989.00
2023-07-24T08:56:40.861Z,1072.00
2023-07-24T08:57:40.759Z,1050.00
2023-07-24T08:58:40.768Z,1113.00
2023-07-24T08:59:40.756Z,577.00
2023-07-24T09:00:40.765Z,1113.00
2023-07-24T09:01:40.717Z,2496.00
2023-07-24T09:02:40.778Z,1749.00
2023-07-24T09:03:40.744Z,2096.00
2023-07-24T09:04:40.690Z,2290.00
2023-07-24T09:05:40.687Z,2854.00
2023-07-24T09:06:40.705Z,2222.00
2023-07-24T09:07:40.677Z,1821.00
2023-07-24T09:08:40.661Z,2203.00
2023-07-24T09:09:40.645Z,2059.00
2023-07-24T09:10:40.674Z,2528.00
2023-07-24T09:11:40.723Z,1284.00
2023-07-24T09:12:42.376Z,1377.00
2023-07-24T09:13:40.612Z,2442.00
2023-07-24T09:14:40.592Z,1089.00
2023-07-24T09:15:40.575Z,1491.00
2023-07-24T09:16:40.627Z,1386.00
2023-07-24T09:17:41.142Z,1662.00
2023-07-24T09:18:40.561Z,1742.00
2023-07-24T09:19:40.575Z,949.00
2023-07-24T09:20:40.516Z,1127.00
2023-07-24T09:21:40.525Z,818.00
2023-07-24T09:22:52.855Z,989.00
2023-07-24T09:23:40.493Z,1581.00
2023-07-24T09:24:40.613Z,1201.00
2023-07-24T09:25:40.465Z,1590.00
2023-07-24T09:26:44.856Z,2039.00
2023-07-24T09:27:40.460Z,2270.00
2023-07-24T09:28:40.434Z,3060.00
2023-07-24T09:29:40.420Z,2245.00
2023-07-24T09:30:41.146Z,2199.00
2023-07-24T09:31:40.413Z,1693.00
2023-07-24T09:32:40.407Z,3308.00
2023-07-24T09:33:40.392Z,2747.00
2023-07-24T09:34:40.388Z,2005.00
2023-07-24T09:35:40.465Z,2325.00
2023-07-24T09:36:40.349Z,2326.00
2023-07-24T09:37:40.351Z,1261.00
2023-07-24T09:38:40.354Z,4751.00
2023-07-24T09:40:40.316Z,2776.00
2023-07-24T09:41:41.532Z,3163.00
2023-07-24T09:42:58.117Z,3078.00
2023-07-24T09:43:41.678Z,3226.00
2023-07-24T09:44:40.280Z,2872.00
2023-07-24T09:45:45.973Z,2566.00
2023-07-24T09:48:43.420Z,2608.00
2023-07-24T09:49:40.300Z,3051.00
2023-07-24T09:50:40.268Z,2131.00
2023-07-24T09:51:40.215Z,2265.00
2023-07-24T09:52:41.129Z,1929.00
2023-07-24T09:53:40.183Z,2055.00
2023-07-24T09:54:40.173Z,1016.00
2023-07-24T09:55:40.146Z,1864.00
2023-07-24T09:56:50.388Z,959.00
2023-07-24T09:57:40.210Z,4340.00
2023-07-24T09:58:40.163Z,2173.00
2023-07-24T09:59:40.125Z,1383.00
2023-07-24T10:00:40.100Z,1079.00
2023-07-24T10:01:40.171Z,1631.00
2023-07-24T10:02:40.220Z,1657.00
2023-07-24T10:03:42.917Z,786.00
2023-07-24T10:04:40.086Z,1154.00
2023-07-24T10:05:40.057Z,1346.00
2023-07-24T10:06:40.077Z,1629.00
2023-07-24T10:07:40.023Z,2730.00
2023-07-24T10:08:40.011Z,2077.00
2023-07-24T10:09:40.002Z,2634.00
2023-07-24T10:10:40.004Z,2481.00
2023-07-24T10:11:40.034Z,1927.00
2023-07-24T10:12:39.968Z,2144.00
2023-07-24T10:13:39.977Z,2043.00
2023-07-24T10:14:39.962Z,2366.00
2023-07-24T10:15:39.947Z,2743.00
2023-07-24T10:16:40.015Z,2174.00
2023-07-24T10:17:39.993Z,2240.00
2023-07-24T10:18:41.246Z,2737.00
2023-07-24T10:19:39.914Z,2508.00
2023-07-24T10:20:39.894Z,2108.00
2023-07-24T10:21:39.863Z,1925.00
2023-07-24T10:22:39.885Z,1595.00
2023-07-24T10:23:39.894Z,1217.00
2023-07-24T10:24:42.336Z,1561.00
2023-07-24T10:25:39.827Z,2301.00
2023-07-24T10:26:39.911Z,2100.00
2023-07-24T10:27:39.866Z,2795.00
2023-07-24T10:28:42.040Z,2086.00
2023-07-24T10:29:39.800Z,1651.00
2023-07-24T10:30:39.851Z,1962.00
2023-07-24T10:31:39.973Z,2548.00
2023-07-24T10:32:39.825Z,2539.00
2023-07-24T10:33:39.845Z,2095.00
2023-07-24T10:34:39.776Z,1618.00
2023-07-24T10:35:39.730Z,2590.00
2023-07-24T10:36:39.720Z,2719.00
2023-07-24T10:37:39.746Z,2835.00
2023-07-24T10:38:40.250Z,2702.00
2023-07-24T10:39:39.707Z,2309.00
2023-07-24T10:40:39.679Z,2084.00
2023-07-24T10:41:39.678Z,1904.00
2023-07-24T10:42:39.670Z,1202.00
2023-07-24T10:43:39.656Z,1376.00
2023-07-24T10:44:39.627Z,1369.00
2023-07-24T10:45:39.725Z,1618.00
2023-07-24T10:46:39.649Z,1006.00
2023-07-24T10:47:39.636Z,2488.00
2023-07-24T10:48:39.619Z,2321.00
2023-07-24T10:49:39.587Z,2633.00
2023-07-24T10:50:39.587Z,1793.00
2023-07-24T10:51:39.563Z,1473.00
2023-07-24T10:52:39.692Z,1660.00
2023-07-24T10:53:39.543Z,1712.00
2023-07-24T10:54:39.565Z,1586.00
2023-07-24T10:55:39.528Z,2078.00
2023-07-24T10:56:39.505Z,1746.00
2023-07-24T10:57:39.608Z,903.00
2023-07-24T10:58:39.483Z,1989.00
2023-07-24T10:59:39.570Z,1955.00
2023-07-24T11:00:39.475Z,4103.00
2023-07-24T11:01:39.534Z,2480.00
2023-07-24T11:02:39.507Z,1134.00
2023-07-24T11:03:39.460Z,706.00
2023-07-24T11:04:39.462Z,1441.00
2023-07-24T11:05:39.401Z,1911.00
2023-07-24T11:06:39.402Z,1023.00
2023-07-24T11:07:39.387Z,1553.00
2023-07-24T11:08:39.379Z,1515.00
2023-07-24T11:09:39.364Z,1471.00
2023-07-24T11:10:39.489Z,1500.00
2023-07-24T11:11:39.347Z,1699.00
2023-07-24T11:12:39.329Z,1566.00
2023-07-24T11:13:39.335Z,1628.00
2023-07-24T11:14:39.319Z,1662.00
2023-07-24T11:15:39.328Z,2519.00
2023-07-24T11:16:40.509Z,1965.00
2023-07-24T11:17:39.297Z,1430.00
2023-07-24T11:19:39.293Z,4202.00
2023-07-24T11:20:39.264Z,3389.00
2023-07-24T11:21:39.246Z,2704.00
2023-07-24T11:22:39.225Z,2359.00
2023-07-24T11:23:39.231Z,2255.00
2023-07-24T11:24:39.222Z,2851.00
2023-07-24T11:25:39.282Z,2638.00
2023-07-24T11:26:41.140Z,2968.00
2023-07-24T11:27:39.179Z,3624.00
2023-07-24T11:28:39.163Z,3004.00
2023-07-24T11:29:39.167Z,3067.00
2023-07-24T11:30:39.335Z,2964.00
2023-07-24T11:31:39.190Z,2946.00
2023-07-24T11:32:39.166Z,2261.00
2023-07-24T11:33:39.115Z,1914.00
2023-07-24T11:34:39.117Z,2148.00
2023-07-24T11:35:39.092Z,2589.00
2023-07-24T11:36:39.142Z,2030.00
2023-07-24T11:37:39.068Z,1706.00
2023-07-24T11:38:40.078Z,1927.00
2023-07-24T11:39:39.051Z,1500.00
2023-07-24T11:40:39.045Z,1215.00
2023-07-24T11:41:39.044Z,1775.00
2023-07-24T11:42:39.026Z,1838.00
2023-07-24T11:43:39.003Z,1506.00
2023-07-24T11:44:38.999Z,882.00
2023-07-24T11:45:38.982Z,549.00
2023-07-24T11:46:39.044Z,1098.00
2023-07-24T11:47:39.002Z,1670.00
2023-07-24T11:48:38.958Z,1593.00
2023-07-24T11:49:38.968Z,1630.00
2023-07-24T11:50:38.931Z,1000.00
2023-07-24T11:51:38.910Z,885.00
2023-07-24T11:52:38.934Z,471.00
2023-07-24T11:53:38.916Z,285.00
2023-07-24T11:54:38.924Z,320.00
2023-07-24T11:55:38.880Z,366.00
2023-07-24T11:56:38.880Z,258.00
2023-07-24T11:57:38.886Z,278.00
2023-07-24T11:58:38.866Z,392.00
2023-07-24T11:59:38.879Z,1282.00
2023-07-24T12:00:38.833Z,2274.00
2023-07-24T12:01:38.820Z,2639.00
2023-07-24T12:02:38.905Z,2360.00
2023-07-24T12:03:38.874Z,1725.00
2023-07-24T12:04:38.890Z,1462.00
2023-07-24T12:05:38.766Z,1680.00
2023-07-24T12:06:38.815Z,1541.00
2023-07-24T12:07:38.768Z,1350.00
2023-07-24T12:08:39.825Z,1029.00
2023-07-24T12:09:38.844Z,925.00
2023-07-24T12:10:40.442Z,1182.00
2023-07-24T12:11:38.711Z,1338.00
2023-07-24T12:12:38.743Z,1503.00
2023-07-24T12:13:38.702Z,1615.00
2023-07-24T12:14:38.668Z,1689.00
2023-07-24T12:15:38.687Z,1783.00
2023-07-24T12:16:38.651Z,1928.00
2023-07-24T12:17:38.676Z,1978.00
2023-07-24T12:18:38.657Z,1924.00
2023-07-24T12:19:38.626Z,1994.00
2023-07-24T12:20:38.632Z,1613.00
2023-07-24T12:21:38.598Z,1054.00
2023-07-24T12:22:38.610Z,1105.00
2023-07-24T12:23:38.605Z,1229.00
2023-07-24T12:24:38.640Z,1493.00
2023-07-24T12:25:38.547Z,1646.00
2023-07-24T12:26:38.547Z,1595.00
2023-07-24T12:27:38.551Z,1389.00
2023-07-24T12:28:38.596Z,1664.00
2023-07-24T12:29:38.514Z,2035.00
2023-07-24T12:30:38.512Z,2226.00
2023-07-24T12:31:38.509Z,2109.00
2023-07-24T12:32:38.566Z,2041.00
2023-07-24T12:33:38.469Z,1918.00
2023-07-24T12:34:38.482Z,1813.00
2023-07-24T12:35:38.460Z,1967.00
2023-07-24T12:36:38.437Z,2377.00
2023-07-24T12:37:38.421Z,2674.00
2023-07-24T12:38:38.449Z,2973.00
2023-07-24T12:39:38.402Z,3056.00
2023-07-24T12:40:38.407Z,2789.00